createdAt,value
2022-11-26T00:00:47.640Z,17.70
2022-11-26T00:03:14.694Z,17.57
2022-11-26T00:05:43.918Z,19.70
2022-11-26T00:08:20.173Z,17.50
2022-11-26T00:10:49.790Z,16.73
2022-11-26T00:13:21.266Z,17.67
2022-11-26T00:15:51.692Z,16.30
2022-11-26T00:18:19.093Z,17.87
2022-11-26T00:20:50.771Z,16.97
2022-11-26T00:23:25.684Z,15.83
2022-11-26T00:25:57.758Z,16.77
2022-11-26T00:28:27.019Z,16.47
2022-11-26T00:30:56.129Z,15.93
2022-11-26T00:33:23.634Z,16.43
2022-11-26T00:35:52.412Z,16.37
2022-11-26T00:38:21.627Z,16.40
2022-11-26T00:40:48.459Z,16.60
2022-11-26T00:43:17.100Z,16.40
2022-11-26T00:45:43.986Z,15.37
2022-11-26T00:48:10.559Z,14.80
2022-11-26T00:50:42.246Z,17.03
2022-11-26T00:53:16.034Z,34.93
2022-11-26T00:55:46.378Z,16.80
2022-11-26T00:58:21.068Z,15.73
2022-11-26T01:00:48.255Z,15.80
2022-11-26T01:03:14.929Z,16.37
2022-11-26T01:05:41.417Z,16.23
2022-11-26T01:08:32.779Z,15.20
2022-11-26T01:11:02.123Z,16.17
2022-11-26T01:13:29.848Z,16.57
2022-11-26T01:15:57.734Z,15.83
2022-11-26T01:18:24.918Z,15.43
2022-11-26T01:20:51.364Z,15.13
2022-11-26T01:23:19.957Z,15.83
2022-11-26T01:25:47.663Z,16.57
2022-11-26T01:28:17.789Z,16.20
2022-11-26T01:30:45.278Z,16.47
2022-11-26T01:33:11.796Z,16.93
2022-11-26T01:35:38.432Z,16.27
2022-11-26T01:38:05.531Z,16.67
2022-11-26T01:40:50.742Z,20.43
2022-11-26T01:43:28.096Z,17.50
2022-11-26T01:45:55.992Z,16.53
2022-11-26T01:48:26.177Z,16.40
2022-11-26T01:50:59.166Z,15.93
2022-11-26T01:53:31.300Z,15.70
2022-11-26T01:56:02.171Z,16.50
2022-11-26T01:58:39.851Z,16.93
2022-11-26T02:01:07.312Z,18.57
2022-11-26T02:03:40.824Z,17.70
2022-11-26T02:06:13.418Z,18.30
2022-11-26T02:08:39.975Z,18.43
2022-11-26T02:11:22.397Z,19.20
2022-11-26T02:13:52.877Z,17.80
2022-11-26T02:17:00.893Z,18.43
2022-11-26T02:19:43.267Z,19.50
2022-11-26T02:22:40.175Z,19.27
2022-11-26T02:25:33.866Z,20.03
2022-11-26T02:28:09.337Z,19.37
2022-11-26T02:30:41.729Z,20.13
2022-11-26T02:33:16.856Z,19.23
2022-11-26T02:35:49.703Z,18.77
2022-11-26T02:38:30.399Z,19.90
2022-11-26T02:40:57.248Z,19.83
2022-11-26T02:43:25.447Z,20.17
2022-11-26T02:46:01.921Z,20.40
2022-11-26T02:48:36.648Z,20.43
2022-11-26T02:51:22.230Z,20.37
2022-11-26T02:53:50.804Z,21.27
2022-11-26T02:56:22.434Z,19.60
2022-11-26T02:58:51.039Z,20.70
2022-11-26T03:01:29.360Z,20.03
2022-11-26T03:03:59.806Z,19.77
2022-11-26T03:06:31.303Z,20.17
2022-11-26T03:08:58.549Z,21.13
2022-11-26T03:11:25.157Z,20.27
2022-11-26T03:13:51.677Z,21.20
2022-11-26T03:16:18.398Z,20.57
2022-11-26T03:18:44.928Z,20.00
2022-11-26T03:21:11.440Z,19.63
2022-11-26T03:23:38.039Z,20.70
2022-11-26T03:26:04.765Z,20.30
2022-11-26T03:28:32.351Z,19.17
2022-11-26T03:30:58.983Z,21.20
2022-11-26T03:33:25.842Z,20.53
2022-11-26T03:35:52.352Z,18.60
2022-11-26T03:38:19.069Z,18.77
2022-11-26T03:40:45.569Z,18.17
2022-11-26T03:43:12.072Z,19.70
2022-11-26T03:45:38.539Z,19.47
2022-11-26T03:48:05.512Z,20.23
2022-11-26T03:50:32.159Z,19.70
2022-11-26T03:52:58.705Z,20.07
2022-11-26T03:55:25.106Z,19.33
2022-11-26T03:57:51.597Z,20.10
2022-11-26T04:00:18.600Z,19.50
2022-11-26T04:02:45.189Z,20.37
2022-11-26T04:05:11.727Z,19.67
2022-11-26T04:07:38.282Z,19.10
2022-11-26T04:10:05.740Z,19.53
2022-11-26T04:12:32.622Z,19.63
2022-11-26T04:14:59.149Z,21.50
2022-11-26T04:17:25.688Z,19.17
2022-11-26T04:19:52.263Z,20.10
2022-11-26T04:22:18.775Z,18.83
2022-11-26T04:24:45.239Z,19.80
2022-11-26T04:27:11.694Z,19.03
2022-11-26T04:29:38.251Z,19.33
2022-11-26T04:32:05.229Z,19.00
2022-11-26T04:34:32.549Z,18.60
2022-11-26T04:36:59.156Z,19.57
2022-11-26T04:39:25.676Z,20.07
2022-11-26T04:41:52.191Z,19.90
2022-11-26T04:44:18.661Z,19.57
2022-11-26T04:46:45.362Z,19.93
2022-11-26T04:49:11.853Z,17.07
2022-11-26T04:51:38.355Z,16.67
2022-11-26T04:54:09.913Z,16.63
2022-11-26T04:56:39.336Z,16.40
2022-11-26T04:59:05.923Z,18.90
2022-11-26T05:01:32.594Z,18.37
2022-11-26T05:03:59.148Z,17.43
2022-11-26T05:06:25.795Z,17.40
2022-11-26T05:08:52.273Z,16.77
2022-11-26T05:11:18.741Z,17.90
2022-11-26T05:13:45.178Z,16.80
2022-11-26T05:16:11.732Z,15.87
2022-11-26T05:18:38.278Z,16.30
2022-11-26T05:21:06.009Z,16.00
2022-11-26T05:23:32.805Z,16.83
2022-11-26T05:25:59.429Z,15.30
2022-11-26T05:28:25.851Z,16.40
2022-11-26T05:31:03.010Z,16.23
2022-11-26T05:33:29.619Z,17.00
2022-11-26T05:35:56.436Z,16.97
2022-11-26T05:38:23.603Z,17.07
2022-11-26T05:40:50.056Z,15.97
2022-11-26T05:43:16.948Z,17.40
2022-11-26T05:45:43.636Z,17.20
2022-11-26T05:48:10.266Z,16.77
2022-11-26T05:50:36.953Z,17.63
2022-11-26T05:53:04.155Z,17.07
2022-11-26T05:55:31.104Z,17.57
2022-11-26T05:57:57.846Z,18.23
2022-11-26T06:00:24.596Z,17.60
2022-11-26T06:02:51.131Z,17.60
2022-11-26T06:05:18.077Z,15.83
2022-11-26T06:07:45.225Z,16.07
2022-11-26T06:10:12.681Z,15.17
2022-11-26T06:12:39.361Z,15.03
2022-11-26T06:15:06.646Z,14.87
2022-11-26T06:17:33.111Z,15.00
2022-11-26T06:19:59.924Z,14.00
2022-11-26T06:22:26.421Z,14.43
2022-11-26T06:24:52.919Z,15.37
2022-11-26T06:27:19.494Z,15.93
2022-11-26T06:29:45.949Z,15.73
2022-11-26T06:32:12.389Z,14.97
2022-11-26T06:34:40.257Z,15.10
2022-11-26T06:37:09.268Z,14.53
2022-11-26T06:39:35.700Z,13.50
2022-11-26T06:42:02.334Z,16.13
2022-11-26T06:44:29.037Z,16.90
2022-11-26T06:46:55.499Z,17.37
2022-11-26T06:49:22.000Z,18.97
2022-11-26T06:51:48.463Z,17.50
2022-11-26T06:54:14.981Z,17.17
2022-11-26T06:56:41.487Z,18.13
2022-11-26T06:59:07.976Z,18.50
2022-11-26T07:01:34.831Z,16.40
2022-11-26T07:04:02.852Z,16.53
2022-11-26T07:06:32.594Z,16.67
2022-11-26T07:09:04.472Z,17.67
2022-11-26T07:11:31.302Z,16.70
2022-11-26T07:13:57.949Z,18.03
2022-11-26T07:16:24.818Z,18.87
2022-11-26T07:18:59.286Z,18.20
2022-11-26T07:21:30.856Z,18.13
2022-11-26T07:23:58.500Z,18.40
2022-11-26T07:26:25.088Z,20.20
2022-11-26T07:28:51.850Z,21.23
2022-11-26T07:31:21.792Z,21.47
2022-11-26T07:33:49.160Z,21.07
2022-11-26T07:36:21.562Z,19.43
2022-11-26T07:38:48.564Z,19.50
2022-11-26T07:41:17.958Z,19.47
2022-11-26T07:43:45.508Z,19.30
2022-11-26T07:46:16.077Z,19.03
2022-11-26T07:48:42.711Z,17.83
2022-11-26T07:51:26.378Z,18.57
2022-11-26T07:53:53.434Z,17.63
2022-11-26T07:56:19.945Z,18.30
2022-11-26T07:58:46.443Z,16.73
2022-11-26T08:01:20.917Z,19.80
2022-11-26T08:03:49.477Z,17.97
2022-11-26T08:06:19.274Z,19.50
2022-11-26T08:08:45.927Z,20.10
2022-11-26T08:11:27.312Z,19.97
2022-11-26T08:14:06.546Z,20.50
2022-11-26T08:16:34.164Z,21.57
2022-11-26T08:19:06.755Z,21.57
2022-11-26T08:21:34.076Z,20.67
2022-11-26T08:24:00.860Z,21.80
2022-11-26T08:26:35.939Z,21.93
2022-11-26T08:29:05.159Z,21.77
2022-11-26T08:31:31.872Z,22.23
2022-11-26T08:33:59.853Z,22.90
2022-11-26T08:36:30.767Z,21.67
2022-11-26T08:38:58.247Z,22.20
2022-11-26T08:41:24.838Z,19.80
2022-11-26T08:44:08.075Z,21.57
2022-11-26T08:46:37.257Z,22.13
2022-11-26T08:49:04.942Z,22.03
2022-11-26T08:51:31.502Z,22.53
2022-11-26T08:53:58.029Z,21.37
2022-11-26T08:56:24.579Z,23.90
2022-11-26T08:58:51.679Z,23.63
2022-11-26T09:01:27.027Z,21.87
2022-11-26T09:03:56.080Z,22.73
2022-11-26T09:06:24.543Z,22.63
2022-11-26T09:09:09.796Z,21.67
2022-11-26T09:11:40.429Z,21.83
2022-11-26T09:14:07.099Z,20.90
2022-11-26T09:16:34.195Z,22.03
2022-11-26T09:19:02.784Z,21.77
2022-11-26T09:21:30.022Z,22.67
2022-11-26T09:23:56.553Z,22.17
2022-11-26T09:26:23.151Z,23.23
2022-11-26T09:28:49.928Z,22.87
2022-11-26T09:31:18.167Z,22.23
2022-11-26T09:33:44.972Z,23.47
2022-11-26T09:36:14.459Z,22.33
2022-11-26T09:38:41.704Z,20.90
2022-11-26T09:41:23.535Z,21.27
2022-11-26T09:44:11.301Z,20.93
2022-11-26T09:47:15.351Z,22.07
2022-11-26T09:50:00.785Z,21.33
2022-11-26T09:52:38.308Z,22.07
2022-11-26T09:55:27.603Z,21.90
2022-11-26T09:58:27.223Z,20.37
2022-11-26T10:00:56.689Z,22.07
2022-11-26T10:03:30.101Z,22.07
2022-11-26T10:06:03.092Z,22.07
2022-11-26T10:08:35.329Z,21.80
2022-11-26T10:11:27.020Z,23.63
2022-11-26T10:13:53.448Z,24.73
2022-11-26T10:16:23.628Z,23.80
2022-11-26T10:19:05.316Z,23.10
2022-11-26T10:21:59.718Z,23.07
2022-11-26T10:24:27.249Z,23.07
2022-11-26T10:26:55.144Z,22.37
2022-11-26T10:29:24.956Z,22.03
2022-11-26T10:31:56.941Z,22.47
2022-11-26T10:34:41.742Z,22.20
2022-11-26T10:37:08.583Z,22.47
2022-11-26T10:39:35.306Z,22.03
2022-11-26T10:42:16.370Z,22.53
2022-11-26T10:44:43.055Z,21.80
2022-11-26T10:47:32.834Z,22.67
2022-11-26T10:50:14.202Z,22.77
2022-11-26T10:52:51.234Z,22.07
2022-11-26T10:55:26.460Z,24.43
2022-11-26T10:58:07.152Z,23.67
2022-11-26T11:00:38.285Z,24.20
2022-11-26T11:03:51.795Z,24.87
2022-11-26T11:06:18.758Z,24.50
2022-11-26T11:08:50.482Z,23.63
2022-11-26T11:11:29.628Z,25.10
2022-11-26T11:13:56.708Z,24.20
2022-11-26T11:16:30.015Z,23.93
2022-11-26T11:18:57.780Z,23.30
2022-11-26T11:21:30.692Z,22.60
2022-11-26T11:24:16.308Z,22.80
2022-11-26T11:26:48.420Z,23.07
2022-11-26T11:29:26.142Z,24.60
2022-11-26T11:31:52.674Z,23.83
2022-11-26T11:34:23.623Z,24.47
2022-11-26T11:37:00.737Z,23.63
2022-11-26T11:39:35.285Z,24.60
2022-11-26T11:42:04.636Z,23.77
2022-11-26T11:44:51.229Z,23.63
2022-11-26T11:47:33.205Z,21.97
2022-11-26T11:50:38.649Z,23.23
2022-11-26T11:53:15.475Z,22.20
2022-11-26T11:55:52.060Z,22.17
2022-11-26T11:58:38.496Z,23.90
2022-11-26T12:01:26.799Z,24.20
2022-11-26T12:04:20.031Z,23.47
2022-11-26T12:07:08.222Z,24.17
2022-11-26T12:09:46.152Z,22.97
2022-11-26T12:12:22.889Z,24.80
2022-11-26T12:15:03.281Z,23.33
2022-11-26T12:17:38.906Z,23.63
2022-11-26T12:20:15.058Z,23.53
2022-11-26T12:22:49.358Z,23.57
2022-11-26T12:25:36.464Z,22.43
2022-11-26T12:28:17.787Z,23.80
2022-11-26T12:30:58.542Z,21.27
2022-11-26T12:33:31.806Z,22.73
2022-11-26T12:36:05.422Z,22.00
2022-11-26T12:38:42.018Z,23.07
2022-11-26T12:41:18.521Z,22.30
2022-11-26T12:43:53.039Z,21.37
2022-11-26T12:46:27.060Z,20.40
2022-11-26T12:49:15.071Z,21.97
2022-11-26T12:52:20.166Z,20.07
2022-11-26T12:55:07.959Z,20.93
2022-11-26T12:57:41.359Z,22.10
2022-11-26T13:00:18.967Z,24.23
2022-11-26T13:02:50.838Z,22.47
2022-11-26T13:05:47.322Z,21.93
2022-11-26T13:08:49.230Z,21.00
2022-11-26T13:11:57.252Z,21.53
2022-11-26T13:14:36.168Z,22.90
2022-11-26T13:17:12.242Z,20.40
2022-11-26T13:19:44.791Z,22.87
2022-11-26T13:22:39.518Z,20.27
2022-11-26T13:25:44.659Z,22.93
2022-11-26T13:28:49.677Z,22.27
2022-11-26T13:31:45.253Z,22.03
2022-11-26T13:34:37.136Z,22.33
2022-11-26T13:37:26.173Z,28.93
2022-11-26T13:40:04.597Z,26.07
2022-11-26T13:42:50.252Z,24.27
2022-11-26T13:45:45.446Z,22.87
2022-11-26T13:48:29.546Z,26.47
2022-11-26T13:51:04.573Z,30.63
2022-11-26T13:53:48.454Z,28.10
2022-11-26T13:56:22.152Z,24.83
2022-11-26T13:59:05.427Z,34.63
2022-11-26T14:01:40.400Z,28.23
2022-11-26T14:04:27.328Z,20.77
2022-11-26T14:07:05.717Z,19.13
2022-11-26T14:09:44.657Z,22.70
2022-11-26T14:12:12.968Z,22.07
2022-11-26T14:14:41.528Z,22.50
2022-11-26T14:17:08.228Z,21.93
2022-11-26T14:19:40.598Z,21.57
2022-11-26T14:22:11.761Z,24.93
2022-11-26T14:24:50.614Z,23.50
2022-11-26T14:27:18.549Z,26.50
2022-11-26T14:29:46.660Z,23.03
2022-11-26T14:32:23.169Z,23.77
2022-11-26T14:34:57.368Z,23.10
2022-11-26T14:37:26.751Z,25.10
2022-11-26T14:40:24.732Z,28.30
2022-11-26T14:43:16.706Z,24.90
2022-11-26T14:45:47.027Z,26.70
2022-11-26T14:48:27.774Z,26.27
2022-11-26T14:50:57.039Z,23.63
2022-11-26T14:53:26.547Z,22.13
2022-11-26T14:55:53.739Z,21.00
2022-11-26T14:58:33.547Z,21.47
2022-11-26T15:01:24.466Z,24.83
2022-11-26T15:03:56.907Z,25.17
2022-11-26T15:06:38.313Z,22.40
2022-11-26T15:09:16.780Z,21.37
2022-11-26T15:11:51.843Z,20.27
2022-11-26T15:14:30.595Z,19.30
2022-11-26T15:17:03.624Z,18.83
2022-11-26T15:19:37.194Z,17.13
2022-11-26T15:22:07.290Z,18.17
2022-11-26T15:24:33.877Z,19.87
2022-11-26T15:27:00.401Z,18.43
2022-11-26T15:29:31.311Z,18.90
2022-11-26T15:31:57.817Z,19.07
2022-11-26T15:34:25.493Z,20.67
2022-11-26T15:36:52.022Z,19.00
2022-11-26T15:39:32.006Z,19.07
2022-11-26T15:42:04.471Z,19.40
2022-11-26T15:44:37.684Z,19.13
2022-11-26T15:47:15.745Z,19.90
2022-11-26T15:49:42.274Z,22.00
2022-11-26T15:52:13.028Z,20.20
2022-11-26T15:55:11.868Z,19.77
2022-11-26T15:57:35.416Z,20.77
2022-11-26T16:00:15.360Z,19.53
2022-11-26T16:02:42.913Z,19.03
2022-11-26T16:05:22.611Z,21.03
2022-11-26T16:08:23.727Z,18.53
2022-11-26T16:11:05.007Z,19.53
2022-11-26T16:13:34.765Z,21.20
2022-11-26T16:16:08.157Z,20.40
2022-11-26T16:18:46.489Z,21.97
2022-11-26T16:21:22.260Z,18.50
2022-11-26T16:23:54.456Z,19.53
2022-11-26T16:26:20.937Z,21.10
2022-11-26T16:28:47.924Z,19.73
2022-11-26T16:31:15.827Z,17.97
2022-11-26T16:33:43.502Z,18.77
2022-11-26T16:36:23.156Z,17.77
2022-11-26T16:38:50.811Z,16.37
2022-11-26T16:41:20.434Z,15.87
2022-11-26T16:43:47.212Z,15.43
2022-11-26T16:46:17.120Z,15.10
2022-11-26T16:48:45.086Z,16.17
2022-11-26T16:51:11.710Z,15.17
2022-11-26T16:53:38.512Z,15.93
2022-11-26T16:56:07.165Z,15.17
2022-11-26T16:58:36.329Z,14.93
2022-11-26T17:01:04.674Z,13.10
2022-11-26T17:03:33.367Z,14.17
2022-11-26T17:06:17.464Z,14.03
2022-11-26T17:08:49.436Z,14.27
2022-11-26T17:11:17.458Z,13.87
2022-11-26T17:13:43.917Z,14.47
2022-11-26T17:16:16.729Z,15.23
2022-11-26T17:18:44.029Z,14.23
2022-11-26T17:21:10.649Z,13.67
2022-11-26T17:23:37.503Z,14.90
2022-11-26T17:26:16.648Z,14.03
2022-11-26T17:28:43.228Z,16.93
2022-11-26T17:31:09.974Z,16.90
2022-11-26T17:33:36.489Z,16.17
2022-11-26T17:36:03.672Z,15.67
2022-11-26T17:38:30.191Z,14.73
2022-11-26T17:40:56.624Z,14.57
2022-11-26T17:43:23.100Z,13.60
2022-11-26T17:45:49.600Z,12.93
2022-11-26T17:48:16.848Z,11.90
2022-11-26T17:50:43.455Z,13.70
2022-11-26T17:53:10.132Z,14.50
2022-11-26T17:55:36.663Z,14.40
2022-11-26T17:58:03.672Z,16.50
2022-11-26T18:00:30.228Z,17.90
2022-11-26T18:02:57.274Z,17.70
2022-11-26T18:05:24.278Z,16.60
2022-11-26T18:07:51.549Z,18.30
2022-11-26T18:10:19.887Z,17.60
2022-11-26T18:12:46.618Z,18.93
2022-11-26T18:15:20.747Z,20.43
2022-11-26T18:17:50.801Z,18.73
2022-11-26T18:20:19.540Z,19.17
2022-11-26T18:22:49.130Z,19.90
2022-11-26T18:25:15.661Z,17.70
2022-11-26T18:27:42.222Z,18.30
2022-11-26T18:30:09.904Z,18.43
2022-11-26T18:32:37.797Z,19.13
2022-11-26T18:35:05.987Z,18.33
2022-11-26T18:37:34.766Z,21.37
2022-11-26T18:40:01.641Z,26.20
2022-11-26T18:42:43.590Z,25.57
2022-11-26T18:45:14.744Z,26.40
2022-11-26T18:47:41.547Z,27.93
2022-11-26T18:50:09.039Z,28.60
2022-11-26T18:52:35.869Z,32.67
2022-11-26T18:55:05.438Z,32.73
2022-11-26T18:57:32.423Z,33.60
2022-11-26T18:59:59.165Z,29.73
2022-11-26T19:02:26.087Z,29.87
2022-11-26T19:04:52.956Z,28.27
2022-11-26T19:07:19.658Z,27.73
2022-11-26T19:09:46.233Z,26.03
2022-11-26T19:12:12.995Z,24.90
2022-11-26T19:14:39.774Z,23.17
2022-11-26T19:17:06.423Z,22.23
2022-11-26T19:19:33.282Z,23.93
2022-11-26T19:22:01.607Z,22.73
2022-11-26T19:24:29.923Z,23.63
2022-11-26T19:26:56.934Z,22.20
2022-11-26T19:29:23.547Z,21.13
2022-11-26T19:31:50.091Z,20.90
2022-11-26T19:34:16.869Z,19.43
2022-11-26T19:36:48.159Z,20.00
2022-11-26T19:39:16.033Z,19.97
2022-11-26T19:41:42.795Z,22.80
2022-11-26T19:44:09.353Z,20.03
2022-11-26T19:46:40.515Z,21.33
2022-11-26T19:49:07.666Z,20.83
2022-11-26T19:51:34.166Z,19.90
2022-11-26T19:54:00.698Z,18.27
2022-11-26T19:56:30.867Z,18.50
2022-11-26T19:58:58.642Z,18.73
2022-11-26T20:01:28.687Z,17.03
2022-11-26T20:03:55.307Z,17.30
2022-11-26T20:06:28.363Z,16.60
2022-11-26T20:08:55.453Z,15.67
2022-11-26T20:11:22.321Z,15.17
2022-11-26T20:13:49.622Z,14.93
2022-11-26T20:16:22.495Z,15.23
2022-11-26T20:18:49.638Z,15.40
2022-11-26T20:21:20.203Z,14.13
2022-11-26T20:23:47.783Z,15.23
2022-11-26T20:26:21.666Z,14.97
2022-11-26T20:28:49.458Z,13.63
2022-11-26T20:31:21.866Z,12.77
2022-11-26T20:33:48.798Z,12.90
2022-11-26T20:36:17.578Z,11.47
2022-11-26T20:38:44.092Z,10.60
2022-11-26T20:41:13.423Z,10.03
2022-11-26T20:43:40.137Z,9.23
2022-11-26T20:46:07.828Z,10.20
2022-11-26T20:48:36.280Z,10.00
2022-11-26T20:51:05.016Z,9.33
2022-11-26T20:53:32.623Z,9.17
2022-11-26T20:55:59.284Z,7.93
2022-11-26T20:58:26.989Z,8.10
2022-11-26T21:00:55.295Z,7.33
2022-11-26T21:03:23.266Z,8.00
2022-11-26T21:05:50.124Z,7.73
2022-11-26T21:08:18.303Z,7.70
2022-11-26T21:10:45.395Z,7.70
2022-11-26T21:13:17.423Z,7.17
2022-11-26T21:15:49.102Z,7.80
2022-11-26T21:18:16.422Z,7.57
2022-11-26T21:20:43.971Z,8.13
2022-11-26T21:23:12.362Z,8.47
2022-11-26T21:25:43.284Z,8.10
2022-11-26T21:28:10.740Z,8.03
2022-11-26T21:30:38.419Z,7.77
2022-11-26T21:33:09.294Z,9.23
2022-11-26T21:35:37.556Z,8.27
2022-11-26T21:38:05.906Z,8.50
2022-11-26T21:40:33.665Z,8.10
2022-11-26T21:43:00.192Z,7.90
2022-11-26T21:45:30.703Z,7.43
2022-11-26T21:47:57.222Z,7.73
2022-11-26T21:50:23.962Z,8.70
2022-11-26T21:52:50.407Z,8.70
2022-11-26T21:55:17.051Z,8.13
2022-11-26T21:57:43.676Z,9.10
2022-11-26T22:00:10.677Z,8.80
2022-11-26T22:02:37.710Z,10.67
2022-11-26T22:05:04.720Z,10.53
2022-11-26T22:07:31.536Z,9.43
2022-11-26T22:09:58.207Z,9.10
2022-11-26T22:12:24.668Z,9.13
2022-11-26T22:14:51.282Z,8.30
2022-11-26T22:17:17.787Z,9.40
2022-11-26T22:19:44.319Z,8.40
2022-11-26T22:22:10.760Z,8.97
2022-11-26T22:24:37.449Z,7.93
2022-11-26T22:27:03.966Z,9.37
2022-11-26T22:29:30.435Z,9.40
2022-11-26T22:31:56.890Z,8.90
2022-11-26T22:34:24.544Z,9.43
2022-11-26T22:36:51.418Z,11.30
2022-11-26T22:39:19.985Z,10.10
2022-11-26T22:41:48.116Z,9.67
2022-11-26T22:44:15.896Z,10.70
2022-11-26T22:46:42.810Z,10.37
2022-11-26T22:49:14.723Z,9.97
2022-11-26T22:51:41.583Z,10.27
2022-11-26T22:54:10.325Z,11.40
2022-11-26T22:56:40.369Z,10.40
2022-11-26T22:59:08.736Z,10.90
2022-11-26T23:01:36.618Z,11.50
2022-11-26T23:04:06.560Z,10.07
2022-11-26T23:06:35.155Z,10.60
2022-11-26T23:09:03.689Z,10.70
2022-11-26T23:11:35.812Z,9.63
2022-11-26T23:14:05.033Z,10.47
2022-11-26T23:16:31.589Z,11.13
2022-11-26T23:18:58.178Z,10.03
2022-11-26T23:21:34.177Z,10.80
2022-11-26T23:24:01.929Z,9.87
2022-11-26T23:26:31.621Z,9.87
2022-11-26T23:29:00.133Z,9.80
2022-11-26T23:31:31.095Z,10.93
2022-11-26T23:33:58.079Z,11.67
2022-11-26T23:36:25.016Z,10.63
2022-11-26T23:38:51.544Z,11.33
2022-11-26T23:41:18.187Z,11.73
2022-11-26T23:43:45.375Z,11.60
2022-11-26T23:46:20.602Z,11.60
2022-11-26T23:48:47.764Z,11.30
2022-11-26T23:51:22.957Z,11.03
2022-11-26T23:53:50.797Z,12.40
2022-11-26T23:56:21.808Z,12.67
2022-11-26T23:58:53.717Z,13.20
